Time;durP1;ratioP1;P1;durP2;ratioP2;P2;SDS_P1;SDS_P2;PMS_P1;PMS_P2;Temp;Humidity;BMP_temperature;BMP_pressure;BME280_temperature;BME280_humidity;BME280_pressure;Samples;Min_cycle;Max_cycle;Signal;HPM_P1;HPM_P2
2021/09/06 00:00:45;;;;;;;8.10;4.70;;;;;;;13.10;49.62;101507.42;117392;1178;21917;-58
2021/09/06 00:03:14;;;;;;;9.80;5.20;;;;;;;13.01;49.67;101509.23;117343;1185;24163;-57
2021/09/06 00:05:44;;;;;;;;;;;;;;;12.93;49.78;101508.56;117393;1185;23423;-61
2021/09/06 00:08:12;;;;;;;9.80;5.00;;;;;;;12.87;49.92;101508.94;117299;1186;21911;-61
2021/09/06 00:10:43;;;;;;;8.60;4.90;;;;;;;12.82;49.69;101507.20;117326;1186;23442;-62
2021/09/06 00:13:14;;;;;;;8.20;5.10;;;;;;;12.75;49.84;101509.51;117336;1183;22273;-57
2021/09/06 00:15:42;;;;;;;9.00;4.80;;;;;;;12.65;49.85;101509.71;117388;1183;22935;-57
2021/09/06 00:18:11;;;;;;;8.10;4.40;;;;;;;12.60;49.91;101514.99;117374;1185;23438;-58
2021/09/06 00:20:41;;;;;;;9.80;5.00;;;;;;;12.57;49.84;101515.02;117371;1184;23506;-58
2021/09/06 00:23:29;;;;;;;8.50;4.40;;;;;;;12.57;49.85;101511.84;117417;1185;22001;-61
2021/09/06 00:25:57;;;;;;;8.30;4.50;;;;;;;12.52;49.90;101514.50;117401;1185;23605;-58
2021/09/06 00:28:45;;;;;;;10.40;4.40;;;;;;;12.48;49.91;101517.50;117318;1183;23300;-58
2021/09/06 00:31:15;;;;;;;8.10;4.50;;;;;;;12.45;49.87;101522.24;117465;1183;23624;-60
2021/09/06 00:34:03;;;;;;;9.00;4.10;;;;;;;12.45;49.92;101522.61;117354;1185;21851;-58
2021/09/06 00:36:31;;;;;;;10.00;4.80;;;;;;;12.45;49.99;101522.97;117339;1183;21854;-60
2021/09/06 00:39:09;;;;;;;9.90;5.00;;;;;;;12.48;49.91;101521.20;117247;1182;24202;-58
2021/09/06 00:41:39;;;;;;;7.50;4.50;;;;;;;12.46;49.89;101523.30;117366;1182;23455;-60
2021/09/06 00:44:07;;;;;;;9.50;4.80;;;;;;;12.45;49.93;101521.38;117341;1185;21854;-61
2021/09/06 00:46:35;;;;;;;10.40;5.00;;;;;;;12.45;49.84;101518.91;117335;1185;23471;-58
2021/09/06 00:49:15;;;;;;;8.60;4.50;;;;;;;12.45;49.95;101519.08;117321;1182;23461;-58
2021/09/06 00:51:43;;;;;;;;;;;;;;;12.35;50.07;101515.58;117391;1185;21839;-61
2021/09/06 00:54:13;;;;;;;7.50;4.20;;;;;;;12.31;50.18;101517.36;117395;1185;21852;-60
2021/09/06 00:56:44;;;;;;;9.10;4.30;;;;;;;12.31;50.14;101520.34;117433;1182;23525;-58
2021/09/06 00:59:18;;;;;;;8.20;4.10;;;;;;;12.29;50.26;101514.37;117324;1185;21834;-60
2021/09/06 01:01:46;;;;;;;8.50;4.70;;;;;;;12.27;50.00;101516.65;117297;1185;21858;-63
2021/09/06 01:04:15;;;;;;;9.60;4.50;;;;;;;12.24;50.15;101516.30;117524;1184;24157;-58
2021/09/06 01:06:43;;;;;;;6.30;4.00;;;;;;;12.23;50.12;101521.05;117364;1185;24161;-60
2021/09/06 01:09:11;;;;;;;6.60;3.90;;;;;;;12.20;50.26;101522.80;117339;1185;21852;-58
2021/09/06 01:11:39;;;;;;;8.00;4.00;;;;;;;12.16;50.14;101521.41;117418;1183;21864;-59
2021/09/06 01:14:08;;;;;;;7.40;3.90;;;;;;;12.16;50.30;101520.70;117425;1182;23439;-60
2021/09/06 01:16:37;;;;;;;6.60;3.70;;;;;;;12.15;50.22;101519.64;117413;1185;23469;-57
2021/09/06 01:19:05;;;;;;;9.10;4.70;;;;;;;12.15;50.19;101516.13;117357;1186;23465;-60
2021/09/06 01:21:33;;;;;;;11.20;4.20;;;;;;;12.12;50.08;101516.84;117338;1186;22921;-60
2021/09/06 01:24:02;;;;;;;8.00;4.40;;;;;;;12.09;50.24;101517.55;117531;1184;23465;-58
2021/09/06 01:26:31;;;;;;;7.50;4.10;;;;;;;12.08;50.07;101521.41;117366;1183;21852;-59
2021/09/06 01:28:59;;;;;;;9.00;4.10;;;;;;;12.04;50.32;101521.94;117407;1183;22636;-57
2021/09/06 01:31:27;;;;;;;7.20;4.10;;;;;;;12.03;50.44;101528.62;117403;1184;21845;-60
2021/09/06 01:33:56;;;;;;;6.30;3.90;;;;;;;12.02;50.44;101529.51;117342;1186;21862;-58
2021/09/06 01:36:24;;;;;;;7.30;3.80;;;;;;;12.04;50.16;101527.92;117385;1184;22615;-61
2021/09/06 01:38:52;;;;;;;7.40;3.90;;;;;;;12.02;50.11;101530.38;117422;1185;21855;-60
2021/09/06 01:41:20;;;;;;;7.70;4.30;;;;;;;11.94;50.25;101528.23;117355;1186;21873;-58
2021/09/06 01:43:49;;;;;;;7.10;3.60;;;;;;;11.91;50.33;101531.41;117420;1185;21963;-60
2021/09/06 01:46:17;;;;;;;7.80;3.70;;;;;;;11.88;50.21;101536.68;117312;1181;21860;-60
2021/09/06 01:48:45;;;;;;;6.80;3.70;;;;;;;11.83;50.44;101540.55;117337;1185;23637;-57
2021/09/06 01:51:13;;;;;;;8.50;4.00;;;;;;;11.79;50.29;101542.64;117340;1185;21896;-57
2021/09/06 01:53:42;;;;;;;6.60;3.90;;;;;;;11.72;50.34;101540.17;117409;1185;21855;-60
2021/09/06 01:56:10;;;;;;;6.00;3.80;;;;;;;11.62;50.66;101540.52;117473;1184;23194;-57
2021/09/06 01:58:39;;;;;;;6.50;4.00;;;;;;;11.57;50.55;101547.70;117421;1184;22900;-60
2021/09/06 02:01:07;;;;;;;8.50;3.60;;;;;;;11.58;50.52;101550.70;117365;1185;23436;-57
2021/09/06 02:03:36;;;;;;;6.40;3.20;;;;;;;11.57;50.50;101548.24;117376;1185;24163;-57
2021/09/06 02:06:04;;;;;;;7.00;3.80;;;;;;;11.55;50.53;101548.75;117323;1184;21851;-61
2021/09/06 02:08:33;;;;;;;8.00;4.20;;;;;;;11.43;50.76;101550.14;117372;1185;23429;-61
2021/09/06 02:11:02;;;;;;;7.20;4.00;;;;;;;11.36;50.83;101555.91;117388;1185;24351;-61
2021/09/06 02:13:30;;;;;;;6.70;3.70;;;;;;;11.33;50.78;101556.42;117394;1185;21854;-61
2021/09/06 02:15:58;;;;;;;6.70;3.60;;;;;;;11.30;50.83;101557.30;117374;1184;22925;-58
2021/09/06 02:18:27;;;;;;;5.70;3.10;;;;;;;11.28;50.79;101559.73;117435;1183;22616;-58
2021/09/06 02:21:04;;;;;;;8.50;3.30;;;;;;;11.25;50.88;101562.73;117500;1180;21852;-58
2021/09/06 02:23:32;;;;;;;6.30;3.50;;;;;;;11.22;50.93;101559.38;117337;1178;23466;-58
2021/09/06 02:26:02;;;;;;;6.30;3.60;;;;;;;11.19;50.86;101559.89;117341;1182;23473;-60
2021/09/06 02:28:30;;;;;;;6.80;3.30;;;;;;;11.15;50.90;101562.33;117406;1184;21855;-58
2021/09/06 02:30:59;;;;;;;7.70;4.00;;;;;;;11.10;50.86;101564.77;117326;1186;23247;-60
2021/09/06 02:33:27;;;;;;;7.00;3.50;;;;;;;11.07;50.87;101562.11;117267;1182;22916;-58
2021/09/06 02:35:55;;;;;;;6.80;3.50;;;;;;;11.04;51.04;101565.79;117357;1185;21853;-61
2021/09/06 02:38:23;;;;;;;6.60;3.60;;;;;;;10.99;50.94;101568.06;117358;1184;23432;-58
2021/09/06 02:40:51;;;;;;;6.90;3.30;;;;;;;10.95;51.05;101570.67;117406;1181;21866;-58
2021/09/06 02:43:19;;;;;;;6.80;3.10;;;;;;;10.91;51.23;101571.89;117310;1186;23442;-60
2021/09/06 02:45:47;;;;;;;6.60;3.40;;;;;;;10.88;51.03;101571.15;117472;1185;23465;-58
2021/09/06 02:48:15;;;;;;;5.70;3.30;;;;;;;10.86;51.10;101570.08;117390;1183;21855;-58
2021/09/06 02:50:44;;;;;;;8.10;3.60;;;;;;;10.83;51.13;101572.35;117350;1185;23468;-58
2021/09/06 02:53:12;;;;;;;6.10;3.50;;;;;;;10.81;51.07;101577.96;117373;1185;23439;-58
2021/09/06 02:55:40;;;;;;;7.30;3.70;;;;;;;10.78;51.13;101581.81;117346;1183;23432;-58
2021/09/06 02:58:08;;;;;;;6.60;3.10;;;;;;;10.77;51.11;101583.39;117323;1185;21856;-58
2021/09/06 03:00:37;;;;;;;5.70;3.40;;;;;;;10.74;51.21;101578.29;117383;1182;23456;-58
2021/09/06 03:03:05;;;;;;;6.80;3.40;;;;;;;10.74;51.28;101579.15;117407;1183;23454;-60
2021/09/06 03:05:35;;;;;;;7.50;4.00;;;;;;;10.73;51.44;101581.61;117372;1185;23458;-58
2021/09/06 03:08:03;;;;;;;6.90;3.70;;;;;;;10.73;51.30;101580.73;117410;1185;23462;-59
2021/09/06 03:10:32;;;;;;;8.50;3.70;;;;;;;10.72;51.21;101582.11;117359;1185;22986;-59
2021/09/06 03:13:01;;;;;;;7.40;3.80;;;;;;;10.69;51.33;101579.65;117388;1185;23462;-60
2021/09/06 03:15:29;;;;;;;5.30;3.30;;;;;;;10.70;51.30;101582.99;117386;1185;23465;-60
2021/09/06 03:17:58;;;;;;;6.40;3.50;;;;;;;10.70;51.61;101590.54;117343;1185;24135;-58
2021/09/06 03:20:26;;;;;;;9.10;4.40;;;;;;;10.71;51.48;101596.87;117343;1184;21855;-60
2021/09/06 03:22:54;;;;;;;9.00;3.60;;;;;;;10.73;51.38;101599.34;117368;1185;21855;-58
2021/09/06 03:25:22;;;;;;;8.20;4.00;;;;;;;10.72;51.44;101597.21;117371;1183;21856;-60
2021/09/06 03:27:51;;;;;;;8.70;4.20;;;;;;;10.69;51.40;101597.73;117395;1182;23526;-60
2021/09/06 03:30:19;;;;;;;9.20;4.00;;;;;;;10.68;51.36;101603.34;117367;1185;21896;-58
2021/09/06 03:32:47;;;;;;;9.40;4.20;;;;;;;10.67;51.46;101603.69;117392;1185;21895;-58
2021/09/06 03:35:17;;;;;;;8.00;4.20;;;;;;;10.69;51.52;101608.25;117426;1184;21849;-60
2021/09/06 03:37:45;;;;;;;8.40;4.10;;;;;;;10.73;51.40;101612.51;117445;1182;23452;-60
2021/09/06 03:40:23;;;;;;;13.10;4.70;;;;;;;10.79;51.49;101617.82;117396;1182;23465;-58
2021/09/06 03:42:51;;;;;;;9.10;4.00;;;;;;;10.83;51.41;101619.77;117419;1183;23457;-61
2021/09/06 03:45:20;;;;;;;16.80;5.50;;;;;;;10.89;51.44;101615.06;117353;1185;23348;-61
2021/09/06 03:47:48;;;;;;;11.60;4.50;;;;;;;10.96;51.59;101612.65;117365;1185;22928;-62
2021/09/06 03:50:16;;;;;;;21.50;9.90;;;;;;;11.03;51.37;101618.31;117464;1184;23461;-58
2021/09/06 03:52:46;;;;;;;20.90;10.60;;;;;;;11.12;51.48;101614.48;117418;1184;21843;-58
2021/09/06 03:55:14;;;;;;;16.30;9.30;;;;;;;11.15;51.44;101615.73;117417;1183;21855;-58
2021/09/06 03:57:42;;;;;;;13.40;6.70;;;;;;;11.18;51.49;101617.86;117511;1182;23468;-60
2021/09/06 04:00:11;;;;;;;13.10;6.30;;;;;;;11.22;51.49;101615.24;117373;1185;23436;-62
2021/09/06 04:02:39;;;;;;;15.50;8.20;;;;;;;11.25;51.50;101618.60;117274;1186;21855;-58
2021/09/06 04:05:08;;;;;;;33.80;18.80;;;;;;;11.31;51.77;101618.27;117340;1183;22617;-61
2021/09/06 04:07:36;;;;;;;36.10;19.80;;;;;;;11.36;51.64;101617.94;117394;1182;21898;-58
2021/09/06 04:10:06;;;;;;;38.80;23.90;;;;;;;11.43;51.61;101618.67;117398;1184;23461;-58
2021/09/06 04:12:34;;;;;;;31.80;19.90;;;;;;;11.50;51.70;101620.64;117410;1185;21856;-62
2021/09/06 04:15:03;;;;;;;32.90;16.60;;;;;;;11.58;51.86;101621.55;117333;1187;21856;-63
2021/09/06 04:17:32;;;;;;;23.70;13.60;;;;;;;11.64;51.74;101624.73;117444;1185;23628;-57
2021/09/06 04:20:00;;;;;;;20.20;12.40;;;;;;;11.71;51.77;101625.63;117370;1185;21857;-57
2021/09/06 04:22:28;;;;;;;16.30;9.90;;;;;;;11.79;51.84;101627.23;117315;1184;22917;-57
2021/09/06 04:24:56;;;;;;;14.50;9.00;;;;;;;11.85;51.79;101627.23;117319;1183;23566;-59
2021/09/06 04:27:24;;;;;;;14.00;8.30;;;;;;;11.93;51.80;101632.37;117491;1184;22319;-64
2021/09/06 04:29:53;;;;;;;16.40;6.50;;;;;;;12.01;51.63;101631.88;117422;1185;23003;-63
2021/09/06 04:32:21;;;;;;;10.60;5.80;;;;;;;12.11;51.83;101636.13;117356;1184;21896;-62
2021/09/06 04:34:51;;;;;;;10.80;6.30;;;;;;;12.18;51.96;101635.78;117392;1185;23474;-57
2021/09/06 04:37:19;;;;;;;10.90;4.90;;;;;;;12.26;52.02;101641.59;117335;1182;23590;-62
2021/09/06 04:39:47;;;;;;;8.50;5.00;;;;;;;12.34;51.89;101641.79;117358;1184;21860;-57
2021/09/06 04:42:15;;;;;;;9.60;4.30;;;;;;;12.48;51.86;101639.66;117372;1182;23478;-56
2021/09/06 04:44:44;;;;;;;9.50;4.20;;;;;;;12.59;51.85;101636.67;117424;1182;21854;-57
2021/09/06 04:47:14;;;;;;;8.10;3.80;;;;;;;12.71;51.96;101640.19;117459;1185;21912;-62
2021/09/06 04:49:43;;;;;;;11.90;4.60;;;;;;;12.83;51.88;101638.76;117428;1182;21864;-63
2021/09/06 04:52:27;;;;;;;6.90;3.70;;;;;;;12.99;51.99;101640.14;117379;1185;23442;-63
2021/09/06 04:54:55;;;;;;;9.00;4.10;;;;;;;13.12;51.80;101639.58;117347;1184;22455;-62
2021/09/06 04:57:23;;;;;;;8.10;4.30;;;;;;;13.26;51.66;101643.06;117311;1181;23493;-58
2021/09/06 04:59:56;;;;;;;9.20;3.60;;;;;;;13.41;51.65;101642.68;117282;1181;21936;-62
2021/09/06 05:02:25;;;;;;;7.10;3.50;;;;;;;13.57;51.73;101641.39;117388;1180;21969;-61
2021/09/06 05:04:53;;;;;;;10.30;3.50;;;;;;;13.72;51.66;101641.49;117322;1179;24210;-60
2021/09/06 05:07:22;;;;;;;7.30;3.50;;;;;;;13.90;51.59;101643.16;117257;1181;23469;-60
2021/09/06 05:09:50;;;;;;;11.60;3.00;;;;;;;14.09;51.49;101639.34;117227;1179;21855;-60
2021/09/06 05:12:18;;;;;;;8.90;3.70;;;;;;;14.27;51.46;101635.52;117306;1181;21833;-60
2021/09/06 05:15:07;;;;;;;11.40;4.00;;;;;;;14.49;51.30;101636.38;117298;1179;21849;-60
2021/09/06 05:17:36;;;;;;;8.40;3.20;;;;;;;14.67;51.11;101635.52;117381;1182;22681;-59
2021/09/06 05:20:05;;;;;;;7.70;3.00;;;;;;;14.82;51.11;101638.23;117378;1182;23475;-60
2021/09/06 05:22:33;;;;;;;6.40;3.40;;;;;;;14.98;50.92;101642.33;117345;1182;21982;-61
2021/09/06 05:25:02;;;;;;;8.60;3.20;;;;;;;15.12;50.98;101643.40;117392;1179;21843;-60
2021/09/06 05:27:30;;;;;;;5.60;3.00;;;;;;;15.28;50.83;101644.46;117397;1183;22964;-60
2021/09/06 05:30:16;;;;;;;6.30;3.60;;;;;;;15.51;50.58;101644.19;117429;1185;23442;-60
2021/09/06 05:32:44;;;;;;;6.40;3.70;;;;;;;15.69;50.59;101645.02;117368;1182;23443;-59
2021/09/06 05:35:13;;;;;;;9.30;3.70;;;;;;;15.87;50.55;101644.08;117408;1185;23466;-59
2021/09/06 05:37:41;;;;;;;6.40;3.30;;;;;;;16.07;50.44;101641.67;117240;1181;23439;-60
2021/09/06 05:40:10;;;;;;;6.80;3.30;;;;;;;16.27;50.21;101642.97;117279;1182;24163;-63
2021/09/06 05:42:38;;;;;;;10.70;4.10;;;;;;;16.49;50.03;101644.02;117422;1185;21863;-59
2021/09/06 05:45:07;;;;;;;7.70;3.80;;;;;;;16.69;50.14;101641.92;117394;1176;21852;-60
2021/09/06 05:47:36;;;;;;;8.30;4.40;;;;;;;16.91;50.21;101641.70;117454;1183;24070;-60
2021/09/06 05:50:18;;;;;;;11.60;5.20;;;;;;;17.12;49.91;101645.41;117360;1185;23485;-60
2021/09/06 05:52:47;;;;;;;6.90;3.60;;;;;;;17.30;49.71;101643.98;117322;1186;21871;-60
2021/09/06 05:55:15;;;;;;;6.30;3.10;;;;;;;17.50;49.79;101646.08;117274;1182;21989;-60
2021/09/06 05:57:43;;;;;;;6.50;3.50;;;;;;;17.71;49.50;101644.02;117376;1185;21855;-61
2021/09/06 06:00:12;;;;;;;5.50;3.20;;;;;;;17.92;49.65;101645.50;117449;1182;22145;-61
2021/09/06 06:02:40;;;;;;;5.30;2.80;;;;;;;18.16;49.33;101644.80;117313;1182;22809;-59
2021/09/06 06:05:10;;;;;;;7.30;3.40;;;;;;;18.38;49.22;101645.70;117372;1184;23503;-59
2021/09/06 06:07:43;;;;;;;6.00;3.30;;;;;;;18.64;49.19;101646.30;117355;1182;23596;-59
2021/09/06 06:10:11;;;;;;;6.60;3.30;;;;;;;18.87;48.97;101643.56;117359;1185;21869;-60
2021/09/06 06:12:41;;;;;;;6.80;2.80;;;;;;;19.11;48.85;101646.30;117386;1183;23503;-63
2021/09/06 06:15:09;;;;;;;8.10;2.90;;;;;;;19.38;48.52;101644.85;117379;1182;24171;-63
2021/09/06 06:17:39;;;;;;;5.90;2.90;;;;;;;19.61;48.33;101647.55;117266;1186;23499;-63
2021/09/06 06:20:09;;;;;;;5.20;2.70;;;;;;;19.84;48.02;101650.45;117406;1185;21852;-60
2021/09/06 06:22:37;;;;;;;4.80;2.90;;;;;;;20.08;47.86;101648.62;117335;1182;23539;-62
2021/09/06 06:25:06;;;;;;;6.00;3.50;;;;;;;20.34;47.82;101648.85;117304;1186;23439;-64
2021/09/06 06:27:35;;;;;;;6.60;3.00;;;;;;;20.58;47.59;101650.92;117363;1184;21981;-60
2021/09/06 06:30:05;;;;;;;6.40;3.20;;;;;;;20.79;47.26;101650.77;117406;1184;23465;-62
2021/09/06 06:32:33;;;;;;;6.00;3.60;;;;;;;21.05;47.30;101652.89;117314;1186;21855;-63
2021/09/06 06:35:01;;;;;;;5.90;3.00;;;;;;;21.35;47.31;101653.94;117380;1184;23462;-60
2021/09/06 06:37:30;;;;;;;5.40;2.80;;;;;;;21.60;46.93;101655.34;117267;1181;23464;-62
2021/09/06 06:39:59;;;;;;;6.80;2.90;;;;;;;21.78;46.61;101655.73;117627;1179;23442;-62
2021/09/06 06:42:27;;;;;;;5.00;2.60;;;;;;;21.94;46.43;101654.92;117236;1182;21855;-63
2021/09/06 06:44:55;;;;;;;4.70;2.60;;;;;;;22.12;46.44;101655.80;117267;1179;23959;-60
2021/09/06 06:47:24;;;;;;;4.60;2.60;;;;;;;22.32;46.42;101654.48;117347;1181;23439;-62
2021/09/06 06:49:52;;;;;;;4.40;2.70;;;;;;;22.54;46.27;101654.30;117382;1184;23442;-60
2021/09/06 06:52:20;;;;;;;6.20;2.70;;;;;;;22.80;46.01;101653.92;117427;1185;24160;-63
2021/09/06 06:54:49;;;;;;;6.40;3.30;;;;;;;23.02;45.44;101654.91;117394;1184;23659;-62
2021/09/06 06:57:20;;;;;;;4.70;2.80;;;;;;;23.27;45.25;101654.20;117442;1181;24142;-62
2021/09/06 06:59:48;;;;;;;4.80;2.50;;;;;;;23.44;45.00;101659.34;117636;1184;23486;-63
2021/09/06 07:02:17;;;;;;;8.80;2.70;;;;;;;23.68;45.12;101655.91;117358;1184;21852;-60
2021/09/06 07:04:46;;;;;;;5.40;2.80;;;;;;;23.84;44.91;101658.73;117441;1185;21854;-63
2021/09/06 07:07:14;;;;;;;7.30;3.20;;;;;;;23.98;44.57;101658.44;117415;1186;24142;-63
2021/09/06 07:09:43;;;;;;;6.00;2.90;;;;;;;24.18;44.29;101656.40;117422;1182;22947;-59
2021/09/06 07:12:11;;;;;;;4.60;2.70;;;;;;;24.40;44.07;101655.85;117409;1184;22886;-60
2021/09/06 07:14:40;;;;;;;6.10;2.50;;;;;;;24.60;43.73;101656.82;117400;1181;23082;-59
2021/09/06 07:17:08;;;;;;;4.90;2.20;;;;;;;24.79;43.68;101658.19;117502;1182;23438;-59
2021/09/06 07:19:37;;;;;;;4.30;2.40;;;;;;;24.98;43.30;101659.35;117288;1186;21865;-61
2021/09/06 07:22:05;;;;;;;4.10;2.20;;;;;;;25.18;43.30;101658.48;117401;1185;23440;-63
2021/09/06 07:24:43;;;;;;;4.60;2.10;;;;;;;25.38;43.05;101662.08;117290;1186;23443;-60
2021/09/06 07:27:13;;;;;;;5.10;2.10;;;;;;;25.55;42.84;101658.15;117451;1184;23447;-62
2021/09/06 07:29:43;;;;;;;4.90;2.10;;;;;;;25.70;42.66;101657.17;117434;1183;22694;-63
2021/09/06 07:32:11;;;;;;;3.60;2.10;;;;;;;25.89;42.30;101655.17;117476;1185;21842;-60
2021/09/06 07:34:40;;;;;;;3.10;1.80;;;;;;;26.06;42.62;101652.95;117481;1184;21947;-60
2021/09/06 07:37:08;;;;;;;2.20;1.40;;;;;;;26.39;43.14;101646.05;117452;1185;22708;-60
2021/09/06 07:39:38;;;;;;;4.10;1.40;;;;;;;26.40;41.87;101643.45;117442;1183;21864;-64
2021/09/06 07:42:06;;;;;;;3.10;1.60;;;;;;;26.49;41.86;101641.64;117405;1179;21860;-57
2021/09/06 07:44:34;;;;;;;2.40;1.50;;;;;;;26.70;41.89;101643.84;117414;1182;21903;-60
2021/09/06 07:47:03;;;;;;;2.40;1.40;;;;;;;26.83;41.94;101642.52;117411;1183;23531;-64
2021/09/06 07:49:32;;;;;;;2.90;1.40;;;;;;;26.94;41.71;101642.08;117348;1185;23470;-63
2021/09/06 07:52:00;;;;;;;2.60;1.40;;;;;;;27.07;40.99;101643.95;117437;1184;21864;-63
2021/09/06 07:54:29;;;;;;;2.90;1.50;;;;;;;27.24;40.99;101639.29;117390;1185;23474;-61
2021/09/06 07:57:02;;;;;;;7.00;1.70;;;;;;;27.47;41.36;101638.39;117393;1184;22915;-60
2021/09/06 07:59:30;;;;;;;9.70;2.20;;;;;;;27.69;40.79;101639.53;117405;1185;21891;-62
2021/09/06 08:01:58;;;;;;;14.10;1.90;;;;;;;27.88;40.67;101638.48;117432;1184;21885;-58
2021/09/06 08:04:27;;;;;;;9.50;3.80;;;;;;;28.03;40.49;101640.56;117435;1178;21860;-60
2021/09/06 08:06:56;;;;;;;5.50;2.30;;;;;;;28.10;40.02;101643.39;117475;1184;23622;-62
2021/09/06 08:09:24;;;;;;;3.40;1.50;;;;;;;28.19;40.22;101645.30;117446;1183;21851;-57
2021/09/06 08:11:56;;;;;;;5.10;1.70;;;;;;;28.37;40.21;101649.51;117443;1185;21838;-64
2021/09/06 08:14:24;;;;;;;7.00;2.00;;;;;;;28.46;39.93;101649.14;117517;1184;23003;-59
2021/09/06 08:16:53;;;;;;;33.50;3.40;;;;;;;28.57;39.87;101649.29;117384;1181;21860;-59
2021/09/06 08:19:22;;;;;;;32.30;3.70;;;;;;;28.71;39.54;101650.48;117450;1183;23529;-59
2021/09/06 08:21:50;;;;;;;7.20;1.70;;;;;;;28.88;39.61;101644.63;117366;1182;23474;-64
2021/09/06 08:24:19;;;;;;;6.00;1.40;;;;;;;29.12;39.58;101643.30;117399;1184;24161;-58
2021/09/06 08:26:47;;;;;;;7.60;2.00;;;;;;;29.37;39.14;101644.83;117434;1185;23542;-59
2021/09/06 08:29:17;;;;;;;2.80;1.20;;;;;;;29.48;39.18;101643.13;117437;1183;23466;-62
2021/09/06 08:31:46;;;;;;;23.10;3.20;;;;;;;29.61;39.31;101643.98;117470;1185;21861;-60
2021/09/06 08:34:14;;;;;;;5.40;2.20;;;;;;;29.62;37.84;101643.91;117352;1185;21866;-64
2021/09/06 08:36:54;;;;;;;4.40;2.00;;;;;;;29.50;38.11;101641.92;117423;1188;21857;-59
2021/09/06 08:39:23;;;;;;;5.70;2.00;;;;;;;29.51;38.12;101639.99;117454;1185;21851;-59
2021/09/06 08:41:51;;;;;;;4.90;1.80;;;;;;;29.61;38.10;101639.27;117387;1184;21854;-59
2021/09/06 08:44:19;;;;;;;8.10;1.90;;;;;;;29.72;37.75;101639.59;117382;1185;21898;-63
2021/09/06 08:46:48;;;;;;;3.30;1.50;;;;;;;29.80;38.66;101634.47;117132;1187;21865;-59
2021/09/06 08:49:19;;;;;;;2.70;1.50;;;;;;;29.91;40.93;101638.52;117330;1186;23472;-59
2021/09/06 08:51:47;;;;;;;8.50;2.50;;;;;;;29.97;40.74;101634.30;117559;1183;22642;-64
2021/09/06 08:54:16;;;;;;;6.60;2.10;;;;;;;30.28;42.53;101632.71;117429;1184;23447;-63
2021/09/06 08:56:46;;;;;;;6.70;2.10;;;;;;;30.51;42.84;101628.11;117439;1182;21854;-64
2021/09/06 08:59:17;;;;;;;3.90;1.70;;;;;;;30.78;43.22;101628.94;117211;1187;22919;-59
2021/09/06 09:01:51;;;;;;;7.30;1.90;;;;;;;30.89;43.61;101620.82;117288;1186;21862;-59
2021/09/06 09:04:22;;;;;;;11.30;2.40;;;;;;;31.03;42.95;101625.16;117282;1185;21862;-58
2021/09/06 09:07:09;;;;;;;8.50;2.60;;;;;;;31.14;44.64;101622.29;117381;1183;24695;-57
2021/09/06 09:09:38;;;;;;;16.40;3.00;;;;;;;31.19;42.34;101619.88;117382;1184;23438;-63
2021/09/06 09:12:13;;;;;;;17.20;3.10;;;;;;;31.27;40.55;101619.83;117429;1183;23444;-61
2021/09/06 09:14:43;;;;;;;18.20;3.80;;;;;;;31.38;39.93;101618.89;117380;1184;24153;-58
2021/09/06 09:17:12;;;;;;;41.00;9.20;;;;;;;31.52;39.71;101615.48;117341;1185;21895;-58
2021/09/06 09:19:44;;;;;;;67.50;9.30;;;;;;;31.60;39.90;101614.80;117554;1184;23462;-64
2021/09/06 09:22:14;;;;;;;12.80;3.00;;;;;;;31.57;42.89;101622.67;117457;1185;22001;-60
2021/09/06 09:24:43;;;;;;;5.40;1.80;;;;;;;31.45;43.45;101620.89;117371;1182;22988;-67
2021/09/06 09:27:13;;;;;;;12.80;2.80;;;;;;;31.12;45.84;101621.37;117306;1179;23474;-59
2021/09/06 09:29:43;;;;;;;9.30;2.60;;;;;;;30.85;47.61;101623.48;117330;1180;22301;-62
2021/09/06 09:32:12;;;;;;;7.20;1.80;;;;;;;30.69;49.12;101624.74;117295;1181;21855;-59
2021/09/06 09:34:42;;;;;;;7.20;2.00;;;;;;;30.62;48.28;101620.90;117280;1180;23842;-60
2021/09/06 09:37:11;;;;;;;7.50;2.20;;;;;;;30.40;46.19;101616.98;117256;1179;21866;-59
2021/09/06 09:39:39;;;;;;;10.80;3.60;;;;;;;30.01;45.26;101618.84;117301;1182;21852;-59
2021/09/06 09:42:10;;;;;;;;;;;;;;;29.64;44.67;101621.92;117368;1185;21842;-59
2021/09/06 09:44:49;;;;;;;8.20;2.50;;;;;;;29.44;44.84;101622.64;117450;1185;22096;-59
2021/09/06 09:47:21;;;;;;;7.40;2.70;;;;;;;29.38;44.56;101618.52;117408;1185;21862;-64
2021/09/06 09:49:50;;;;;;;7.00;2.40;;;;;;;29.48;44.19;101612.21;117410;1183;21853;-64
2021/09/06 09:52:20;;;;;;;8.90;2.60;;;;;;;29.56;47.44;101613.27;117374;1182;21866;-56
2021/09/06 09:54:54;;;;;;;6.10;2.00;;;;;;;29.81;51.79;101614.66;117370;1182;22976;-64
2021/09/06 09:57:26;;;;;;;4.40;2.20;;;;;;;30.16;52.24;101614.23;117508;1184;21844;-59
2021/09/06 09:59:55;;;;;;;6.10;1.70;;;;;;;30.36;53.37;101610.21;117393;1182;22959;-64
2021/09/06 10:02:25;;;;;;;3.30;1.80;;;;;;;30.14;51.94;101605.52;117356;1184;21896;-63
2021/09/06 10:04:56;;;;;;;3.40;1.70;;;;;;;29.97;52.92;101606.61;117417;1185;23466;-56
2021/09/06 10:07:26;;;;;;;3.10;1.40;;;;;;;30.10;53.16;101608.36;117380;1185;21882;-58
2021/09/06 10:09:54;;;;;;;3.80;1.50;;;;;;;30.47;55.32;101606.32;117376;1185;24258;-57
2021/09/06 10:12:25;;;;;;;3.90;1.50;;;;;;;30.82;55.19;101603.64;117438;1185;21937;-58
2021/09/06 10:15:06;;;;;;;7.20;2.20;;;;;;;31.13;55.89;101602.63;117419;1185;22902;-58
2021/09/06 10:17:55;;;;;;;4.10;2.30;;;;;;;31.46;55.90;101603.63;117321;1184;21864;-58
2021/09/06 10:20:24;;;;;;;3.20;1.80;;;;;;;31.63;54.61;101599.84;117229;1182;23545;-58
2021/09/06 10:23:04;;;;;;;8.10;1.70;;;;;;;31.42;52.87;101592.90;117435;1185;22908;-59
2021/09/06 10:25:36;;;;;;;5.80;1.70;;;;;;;31.15;52.55;101590.85;117346;1180;21902;-62
2021/09/06 10:28:05;;;;;;;4.70;1.50;;;;;;;31.32;52.45;101587.88;117414;1184;22906;-56
2021/09/06 10:30:48;;;;;;;5.20;1.50;;;;;;;31.60;52.41;101591.71;117339;1185;24163;-65
2021/09/06 10:33:26;;;;;;;5.00;1.70;;;;;;;31.89;51.94;101596.29;117223;1182;21858;-58
2021/09/06 10:36:18;;;;;;;4.40;2.80;;;;;;;32.12;51.49;101591.26;117350;1184;23082;-57
2021/09/06 10:38:49;;;;;;;5.10;2.60;;;;;;;32.37;53.54;101592.27;117355;1184;22915;-56
2021/09/06 10:41:21;;;;;;;4.10;2.00;;;;;;;32.42;53.60;101593.25;117220;1184;21858;-59
2021/09/06 10:44:00;;;;;;;8.60;2.10;;;;;;;32.41;54.32;101592.81;117391;1182;21893;-65
2021/09/06 10:46:29;;;;;;;7.40;1.90;;;;;;;32.44;54.78;101595.15;117297;1182;22255;-61
2021/09/06 10:49:01;;;;;;;2.60;1.50;;;;;;;32.35;55.45;101594.43;117386;1181;23545;-65
2021/09/06 10:51:31;;;;;;;3.10;1.50;;;;;;;32.18;55.68;101589.69;117331;1182;23325;-59
2021/09/06 10:54:03;;;;;;;5.50;1.70;;;;;;;31.85;55.84;101590.41;117361;1180;22915;-65
2021/09/06 10:56:31;;;;;;;7.80;1.80;;;;;;;31.51;56.23;101592.88;117416;1181;21848;-58
2021/09/06 10:59:00;;;;;;;7.80;2.00;;;;;;;31.47;57.30;101592.30;117332;1181;22064;-64
2021/09/06 11:01:30;;;;;;;7.30;1.80;;;;;;;31.74;58.16;101586.84;117377;1183;21855;-54
2021/09/06 11:04:00;;;;;;;6.40;1.60;;;;;;;32.06;58.35;101587.75;117371;1185;22954;-64
2021/09/06 11:06:29;;;;;;;5.60;2.00;;;;;;;32.38;58.70;101586.67;117339;1182;21854;-64
2021/09/06 11:09:01;;;;;;;8.70;2.00;;;;;;;32.72;58.56;101583.04;117399;1179;21960;-58
2021/09/06 11:11:30;;;;;;;8.00;1.90;;;;;;;32.90;58.71;101582.61;117414;1185;21855;-64
2021/09/06 11:14:00;;;;;;;7.80;2.00;;;;;;;33.06;58.87;101583.38;117407;1184;22182;-59
2021/09/06 11:16:36;;;;;;;4.00;1.80;;;;;;;33.11;58.88;101581.49;117469;1182;21845;-59
2021/09/06 11:19:12;;;;;;;4.20;1.80;;;;;;;32.89;58.09;101579.55;117262;1181;21979;-59
2021/09/06 11:21:40;;;;;;;5.20;2.20;;;;;;;32.32;57.29;101581.37;117345;1181;22915;-64
2021/09/06 11:24:09;;;;;;;4.60;2.20;;;;;;;31.79;57.81;101582.07;117054;1186;22181;-60
2021/09/06 11:26:37;;;;;;;4.70;2.00;;;;;;;31.52;58.60;101582.27;117365;1185;21991;-60
2021/09/06 11:29:06;;;;;;;7.80;1.80;;;;;;;31.42;59.32;101580.73;117349;1185;23441;-62